Flight Track Log - Related Links

Times and Time Zones

All times are in EDT time to prevent confusion due to time zone crossing. See the FFT239 flight status page for this flight to view local times or setup timezone preferences in your user account.

Time Position Orientation Groundspeed Altitude Reporting Facility
EDT Latitude Longitude Course Direction KTS MPH feet Rate Location/Type
Sun 09:58:32 AM 36.0970 -86.7080 256° West 163 188 2,000  Level FlightAware ADS-B
Sun 09:59:00 AM 36.0930 -86.7360 260° West 192 221 2,700 1,607 Climbing FlightAware ADS-B
Sun 09:59:28 AM 36.0870 -86.7700 258° West 226 260 3,500 1,650 Climbing FlightAware ADS-B
Sun 09:59:40 AM 36.0860 -86.7870 266° West 244 281 3,800 1,800 Climbing FlightAware ADS-B
Sun 09:59:58 AM 36.0940 -86.8110 292° West 269 310 4,400 2,739 Climbing FlightAware ADS-B
Sun 10:00:26 AM 36.1110 -86.8500 298° West 277 319 5,900 3,222 Climbing FlightAware ADS-B
Sun 10:00:52 AM 36.1270 -86.8860 299° West 280 322 7,300 3,111 Climbing FlightAware ADS-B
Sun 10:01:20 AM 36.1440 -86.9270 297° West 287 330 8,700 2,836 Climbing FlightAware ADS-B
Sun 10:01:47 AM 36.1610 -86.9660 298° West 293 337 9,900 2,087 Climbing FlightAware ADS-B
Sun 10:02:29 AM 36.1900 -87.0330 298° West 331 381 11,100 2,143 Climbing FlightAware ADS-B
Sun 10:03:11 AM 36.2200 -87.1040 298° West 342 394 12,900 2,442 Climbing FlightAware ADS-B
Sun 10:03:55 AM 36.2540 -87.1830 298° West 359 413 14,600 2,442 Climbing FlightAware ADS-B
Sun 10:04:37 AM 36.2780 -87.2640 290° West 360 414 16,400 2,500 Climbing FlightAware ADS-B
Sun 10:05:07 AM 36.2870 -87.3230 281° West 361 415 17,600 2,250 Climbing FlightAware ADS-B
Sun 10:05:49 AM 36.3010 -87.4080 282° West 366 421 19,100 2,182 Climbing FlightAware ADS-B
Sun 10:06:13 AM 36.3090 -87.4570 281° West 366 421 20,000 1,818 Climbing FlightAware ADS-B
Sun 10:06:55 AM 36.3250 -87.5470 282° West 380 437 21,100 1,724 Climbing FlightAware ADS-B
Sun 10:07:40 AM 36.3450 -87.6420 285° West 384 442 22,500 1,624 Climbing FlightAware ADS-B
Sun 10:08:20 AM 36.3620 -87.7290 284° West 397 457 23,400 1,114 Climbing FlightAware ADS-B
Sun 10:08:50 AM 36.3760 -87.7960 285° West 413 475 23,800 706 Climbing FlightAware ADS-B
Sun 10:09:28 AM 36.3940 -87.8870 284° West 431 496 24,200 643 Climbing FlightAware ADS-B
Sun 10:10:14 AM 36.4170 -88.0000 284° West 449 517 24,700 698 Climbing FlightAware ADS-B
Sun 10:10:54 AM 36.4380 -88.1020 284° West 463 533 25,200 929 Climbing FlightAware ADS-B
Sun 10:11:38 AM 36.4600 -88.2150 284° West 468 539 26,000 1,071 Climbing FlightAware ADS-B
Sun 10:12:18 AM 36.4810 -88.3190 284° West 473 544 26,700 1,026 Climbing FlightAware ADS-B
Sun 10:12:54 AM 36.5000 -88.4160 284° West 477 549 27,300 1,000 Climbing FlightAware ADS-B
Sun 10:13:30 AM 36.5180 -88.5090 284° West 478 550 27,900 424 Climbing FlightAware ADS-B
Sun 10:14:19 AM 36.5390 -88.6210 283° West 478 550 27,900  Level FlightAware ADS-B
Sun 10:14:55 AM 36.5540 -88.7030 283° West 478 550 27,900  Level FlightAware ADS-B
Sun 10:15:31 AM 36.5690 -88.7850 283° West 478 550 27,900  Level FlightAware ADS-B
Sun 10:16:19 AM 36.5890 -88.8940 283° West 478 550 27,900  Level FlightAware ADS-B
Sun 10:16:56 AM 36.6050 -88.9790 283° West 478 550 27,900 890 Level FlightAware ADS-B
Sun 10:19:21 AM 36.6950 -89.4340 284° West 468 539 30,600 905 Climbing FlightAware ADS-B
Sun 10:20:15 AM 36.7180 -89.5560 283° West 467 537 30,900 1,404 Climbing FlightAware ADS-B
Sun 10:20:55 AM 36.7400 -89.6750 283° West 455 524 32,800 2,025 Climbing FlightAware ADS-B
Sun 10:21:35 AM 36.7590 -89.7780 283° West 454 522 33,600 1,244 Climbing FlightAware ADS-B
Sun 10:22:17 AM 36.7790 -89.8850 283° West 448 516 34,500 1,214 Climbing FlightAware ADS-B
Sun 10:22:59 AM 36.7980 -89.9890 283° West 443 510 35,300 977 Climbing FlightAware ADS-B
Sun 10:23:43 AM 36.8180 -90.0980 283° West 443 510 35,900 614 Climbing FlightAware ADS-B
Sun 10:24:27 AM 36.8380 -90.2090 283° West 448 516 36,200 429 Climbing FlightAware ADS-B
Sun 10:25:07 AM 36.8560 -90.3110 282° West 448 516 36,500 474 Climbing FlightAware ADS-B
Sun 10:25:43 AM 36.8720 -90.4000 283° West 447 514 36,800 375 Climbing FlightAware ADS-B
Sun 10:26:27 AM 36.8920 -90.5120 283° West 447 514 37,000 375 Climbing FlightAware ADS-B
Sun 10:27:03 AM 36.9080 -90.6020 283° West 444 511 37,300 429 Climbing FlightAware ADS-B
Sun 10:27:37 AM 36.9230 -90.6870 282° West 441 507 37,500 375 Climbing FlightAware ADS-B
Sun 10:28:23 AM 36.9420 -90.7990 282° West 434 499 37,800 385 Climbing FlightAware ADS-B
Sun 10:28:55 AM 36.9560 -90.8780 283° West 434 499 38,000 257 Climbing FlightAware ADS-B
Sun 10:29:33 AM 36.9720 -90.9700 282° West 434 499 38,100  Climbing FlightAware ADS-B
Sun 10:30:31 AM 36.9970 -91.1110 283° West 434 499 38,000 -59 Descending FlightAware ADS-B
Sun 10:31:15 AM 37.0120 -91.2020 282° West 433 498 38,000 73 Level FlightAware ADS-B
Sun 10:31:53 AM 37.0310 -91.3120 282° West 432 497 38,100 73 Climbing FlightAware ADS-B
Sun 10:32:37 AM 37.0490 -91.4210 282° West 431 496 38,100  Level FlightAware ADS-B
Sun 10:33:20 AM 37.0670 -91.5250 282° West 430 495 38,100 -71 Level FlightAware ADS-B
Sun 10:34:01 AM 37.0830 -91.6240 281° West 429 494 38,000 -72 Descending FlightAware ADS-B
Sun 10:34:43 AM 37.1010 -91.7270 282° West 428 493 38,000  Level FlightAware ADS-B
Sun 10:35:25 AM 37.1170 -91.8260 281° West 430 495 38,000  Level FlightAware ADS-B
Sun 10:36:07 AM 37.1340 -91.9280 282° West 431 496 38,000 71 Level FlightAware ADS-B
Sun 10:36:49 AM 37.1510 -92.0340 281° West 432 497 38,100 74 Climbing FlightAware ADS-B
Sun 10:37:28 AM 37.1670 -92.1290 282° West 433 498 38,100  Level FlightAware ADS-B
Sun 10:38:00 AM 37.1800 -92.2090 282° West 435 501 38,100  Level FlightAware ADS-B
Sun 10:38:36 AM 37.1940 -92.2980 281° West 436 502 38,100  Level FlightAware ADS-B
Sun 10:39:22 AM 37.2120 -92.4110 281° West 438 504 38,100  Level FlightAware ADS-B
Sun 10:39:51 AM 37.2230 -92.4820 281° West 438 504 38,100  Level FlightAware ADS-B
Sun 10:40:32 AM 37.2400 -92.5850 282° West 439 505 38,100  Level FlightAware ADS-B
Sun 10:41:12 AM 37.2560 -92.6860 281° West 438 504 38,100  Level FlightAware ADS-B
Sun 10:41:56 AM 37.2730 -92.7950 281° West 437 503 38,100 -79 Level FlightAware ADS-B
Sun 10:42:28 AM 37.2850 -92.8730 281° West 435 501 38,000 -83 Descending FlightAware ADS-B
Sun 10:43:08 AM 37.3010 -92.9750 281° West 435 501 38,000  Level FlightAware ADS-B
Sun 10:43:52 AM 37.3170 -93.0810 281° West 435 501 38,000  Level FlightAware ADS-B
Sun 10:44:32 AM 37.3330 -93.1810 281° West 437 503 38,000 86 Level FlightAware ADS-B
Sun 10:45:02 AM 37.3440 -93.2570 280° West 438 504 38,100  Climbing FlightAware ADS-B
Sun 10:45:34 AM 37.3560 -93.3380 281° West 439 505 38,000 -79 Descending FlightAware ADS-B
Sun 10:46:18 AM 37.3680 -93.4480 278° West 441 507 38,000 70 Level FlightAware ADS-B
Sun 10:47:00 AM 37.3800 -93.5520 278° West 440 506 38,100 77 Climbing FlightAware ADS-B
Sun 10:47:36 AM 37.3900 -93.6450 278° West 439 505 38,100  Level FlightAware ADS-B
Sun 10:48:23 AM 37.4020 -93.7620 277° West 438 504 38,100 -67 Level FlightAware ADS-B
Sun 10:49:06 AM 37.4140 -93.8730 278° West 438 504 38,000 -72 Descending FlightAware ADS-B
Sun 10:49:46 AM 37.4240 -93.9720 277° West 438 504 38,000  Level FlightAware ADS-B
Sun 10:50:30 AM 37.4360 -94.0840 278° West 438 504 38,000 73 Level FlightAware ADS-B
Sun 10:51:08 AM 37.4460 -94.1790 278° West 436 502 38,100  Climbing FlightAware ADS-B
Sun 10:51:50 AM 37.4570 -94.2830 278° West 437 503 38,000 -71 Descending FlightAware ADS-B
Sun 10:52:32 AM 37.4680 -94.3920 277° West 437 503 38,000  Level FlightAware ADS-B
Sun 10:53:16 AM 37.4780 -94.4990 277° West 440 506 38,000  Level FlightAware ADS-B
Sun 10:53:58 AM 37.4890 -94.6050 277° West 442 509 38,000 74 Level FlightAware ADS-B
Sun 10:54:37 AM 37.4990 -94.7050 277° West 442 509 38,100 74 Climbing FlightAware ADS-B
Sun 10:55:19 AM 37.5090 -94.8140 277° West 443 510 38,100  Level FlightAware ADS-B
Sun 10:56:01 AM 37.5200 -94.9230 277° West 443 510 38,100  Level FlightAware ADS-B
Sun 10:56:47 AM 37.5310 -95.0420 277° West 444 511 38,100  Level FlightAware ADS-B
Sun 10:57:27 AM 37.5410 -95.1410 277° West 443 510 38,100  Level FlightAware ADS-B
Sun 10:58:07 AM 37.5500 -95.2440 276° West 440 506 38,100 -70 Level FlightAware ADS-B
Sun 10:58:53 AM 37.5610 -95.3590 277° West 438 504 38,000 -70 Descending FlightAware ADS-B
Sun 10:59:33 AM 37.5700 -95.4610 276° West 435 501 38,000  Level FlightAware ADS-B
Sun 11:00:11 AM 37.5790 -95.5570 277° West 435 501 38,000  Level FlightAware ADS-B
Sun 11:00:59 AM 37.5900 -95.6790 277° West 438 504 38,000  Level FlightAware ADS-B
Sun 11:01:35 AM 37.5980 -95.7700 276° West 438 504 38,000 81 Level FlightAware ADS-B
Sun 11:02:13 AM 37.6070 -95.8680 277° West 440 506 38,100 73 Climbing FlightAware ADS-B
Sun 11:02:57 AM 37.6170 -95.9780 277° West 439 505 38,100  Level FlightAware ADS-B
Sun 11:03:37 AM 37.6260 -96.0820 276° West 440 506 38,100 -80 Level FlightAware ADS-B
Sun 11:04:12 AM 37.6330 -96.1680 276° West 442 509 38,000  Descending FlightAware ADS-B
Sun 11:04:56 AM 37.6430 -96.2820 276° West 442 509 38,100 68 Climbing FlightAware ADS-B
Sun 11:05:40 AM 37.6520 -96.3930 276° West 441 507 38,100  Level FlightAware ADS-B
Sun 11:06:34 AM 37.6640 -96.5320 276° West 441 507 38,100 -316 Level FlightAware ADS-B
Sun 11:07:15 AM 37.6720 -96.6340 276° West 440 506 37,600 -857 Descending FlightAware ADS-B
Sun 11:07:58 AM 37.6810 -96.7470 276° West 446 513 36,900 -987 Descending FlightAware ADS-B
Sun 11:08:34 AM 37.6890 -96.8420 276° West 449 517 36,300 -730 Descending FlightAware ADS-B
Sun 11:09:12 AM 37.6960 -96.9410 275° West 448 516 36,000 -214 Descending FlightAware ADS-B
Sun 11:09:58 AM 37.7060 -97.0580 276° West 442 509 36,000 81 Level FlightAware ADS-B
Sun 11:10:26 AM 37.7110 -97.1290 275° West 438 504 36,100  Climbing FlightAware ADS-B
Sun 11:11:05 AM 37.7190 -97.2270 276° West 440 506 36,000  Descending FlightAware ADS-B
Sun 11:11:50 AM 37.7280 -97.3460 275° West 443 510 36,100 69 Climbing FlightAware ADS-B
Sun 11:12:32 AM 37.7370 -97.4510 276° West 442 509 36,100  Level FlightAware ADS-B
Sun 11:13:12 AM 37.7610 -97.5500 287° West 446 513 36,100  Level FlightAware ADS-B
Sun 11:13:52 AM 37.7880 -97.6510 289° West 445 512 36,100  Level FlightAware ADS-B
Sun 11:14:20 AM 37.8060 -97.7180 289° West 444 511 36,100  Level FlightAware ADS-B
Sun 11:14:54 AM 37.8280 -97.8000 289° West 440 506 36,100  Level FlightAware ADS-B
Sun 11:15:40 AM 37.8510 -97.9150 284° West 431 496 36,100 -65 Level FlightAware ADS-B
Sun 11:16:26 AM 37.8630 -98.0280 278° West 426 490 36,000 -73 Descending FlightAware ADS-B
Sun 11:17:02 AM 37.8730 -98.1160 278° West 426 490 36,000  Level FlightAware ADS-B
Sun 11:17:48 AM 37.8860 -98.2310 278° West 426 490 36,000  Level FlightAware ADS-B
Sun 11:18:26 AM 37.8960 -98.3230 278° West 429 494 36,000  Level FlightAware ADS-B
Sun 11:19:04 AM 37.9060 -98.4180 278° West 431 496 36,000 77 Level FlightAware ADS-B
Sun 11:19:44 AM 37.9170 -98.5180 278° West 433 498 36,100 83 Climbing FlightAware ADS-B
Sun 11:20:16 AM 37.9260 -98.5990 278° West 434 499 36,100  Level FlightAware ADS-B
Sun 11:20:58 AM 37.9370 -98.7030 278° West 429 494 36,100 -71 Level FlightAware ADS-B
Sun 11:21:40 AM 37.9470 -98.8050 277° West 428 493 36,000 -71 Descending FlightAware ADS-B
Sun 11:22:22 AM 37.9580 -98.9100 278° West 430 495 36,000  Level FlightAware ADS-B
Sun 11:23:04 AM 37.9690 -99.0160 278° West 431 496 36,000 75 Level FlightAware ADS-B
Sun 11:23:42 AM 37.9790 -99.1110 278° West 430 495 36,100  Climbing FlightAware ADS-B
Sun 11:24:29 AM 37.9900 -99.2170 278° West 430 495 36,000 -74 Descending FlightAware ADS-B
Sun 11:25:03 AM 37.9970 -99.2900 277° West 430 495 36,000  Level FlightAware ADS-B
Sun 11:25:52 AM 38.0070 -99.3940 277° West 430 495 36,000  Level FlightAware ADS-B
Sun 11:26:26 AM 38.0140 -99.4670 277° West 430 495 36,000  Level FlightAware ADS-B
Sun 11:27:02 AM 38.0210 -99.5430 277° West 430 495 36,000  Level FlightAware ADS-B
Sun 11:27:36 AM 38.0280 -99.6160 277° West 430 495 36,000  Level FlightAware ADS-B
Sun 11:28:12 AM 38.0360 -99.6920 278° West 430 495 36,000  Level FlightAware ADS-B
Sun 11:29:03 AM 38.0460 -99.8010 277° West 430 495 36,000  Level FlightAware ADS-B
Sun 11:29:39 AM 38.0530 -99.8780 277° West 430 495 36,000  Level FlightAware ADS-B
Sun 11:30:25 AM 38.0630 -99.9760 277° West 430 495 36,000  Level FlightAware ADS-B
Sun 11:31:01 AM 38.0700 -100.0530 277° West 430 495 36,000  Level FlightAware ADS-B
Sun 11:31:47 AM 38.0800 -100.1510 277° West 430 495 36,000  Level FlightAware ADS-B
Sun 11:32:24 AM 38.0870 -100.2300 276° West 430 495 36,000  Level FlightAware ADS-B
Sun 11:33:12 AM 38.0970 -100.3320 277° West 430 495 36,000  Level FlightAware ADS-B
Sun 11:33:58 AM 38.1070 -100.4300 277° West 430 495 36,000  Level FlightAware ADS-B
Sun 11:34:36 AM 38.1319 -100.7186 277° West 424 488 36,000  Level Kansas City Center
Sun 11:35:38 AM 38.1464 -100.8831 276° West 424 488 36,000  Level Kansas City Center
Sun 11:36:40 AM 38.1586 -101.0239 276° West 422 486 36,000 56 Level Kansas City Center
Sun 11:37:25 AM 38.1678 -101.1411 276° West 422 486 36,100  Climbing Denver Center
Sun 11:38:27 AM 38.1800 -101.2817 276° West 420 483 36,000 -145 Descending Denver Center
Sun 11:39:29 AM 38.2069 -101.4425 282° West 420 483 35,800 -532 Descending Denver Center
Sun 11:40:31 AM 38.2672 -101.5661 302° West 428 493 34,900 -823 Descending Denver Center
Sun 11:41:33 AM 38.3389 -101.7108 302° West 435 501 34,100 -484 Descending Denver Center
Sun 11:42:35 AM 38.4011 -101.8386 302° West 441 507 33,900 -581 Descending Denver Center
Sun 11:43:37 AM 38.4742 -101.9864 302° West 439 505 32,900 -694 Descending Denver Center
Sun 11:48:47 AM 38.8120 -102.6870 302° West 448 516 29,600 -688 Descending FlightAware ADS-B
Sun 11:49:26 AM 38.8560 -102.7800 301° West 451 519 28,900 -987 Descending FlightAware ADS-B
Sun 11:50:06 AM 38.8980 -102.8680 302° West 447 514 28,300 -971 Descending FlightAware ADS-B
Sun 11:50:34 AM 38.9280 -102.9320 301° West 443 510 27,800 -1,014 Descending FlightAware ADS-B
Sun 11:51:17 AM 38.9740 -103.0290 301° West 435 501 27,100 -988 Descending FlightAware ADS-B
Sun 11:51:59 AM 39.0170 -103.1210 301° West 435 501 26,400 -1,050 Descending FlightAware ADS-B
Sun 11:52:37 AM 39.0570 -103.2060 301° West 432 497 25,700 -977 Descending FlightAware ADS-B
Sun 11:53:25 AM 39.1060 -103.3110 301° West 429 494 25,000 -933 Descending FlightAware ADS-B
Sun 11:54:07 AM 39.1490 -103.4020 301° West 427 491 24,300 -1,037 Descending FlightAware ADS-B
Sun 11:54:46 AM 39.1880 -103.4870 301° West 421 484 23,600 -987 Descending FlightAware ADS-B
Sun 11:55:26 AM 39.2270 -103.5700 301° West 416 479 23,000 -1,000 Descending FlightAware ADS-B
Sun 11:56:10 AM 39.2710 -103.6650 301° West 415 478 22,200 -940 Descending FlightAware ADS-B
Sun 11:56:49 AM 39.3020 -103.7320 301° West 388 447 21,700 -977 Descending FlightAware ADS-B
Sun 11:57:36 AM 39.3480 -103.8330 301° West 349 402 20,800 -1,052 Descending FlightAware ADS-B
Sun 11:58:26 AM 39.3920 -103.9270 301° West 393 452 20,000 -800 Descending FlightAware ADS-B
Sun 11:59:06 AM 39.4360 -104.0040 307° West 405 466 19,600 -951 Descending FlightAware ADS-B
Sun 11:59:48 AM 39.4840 -104.0830 308° West 403 464 18,700 -1,568 Descending FlightAware ADS-B
Sun 12:00:34 PM 39.5360 -104.1680 308° West 380 437 17,300 -1,643 Descending FlightAware ADS-B
Sun 12:01:12 PM 39.5770 -104.2360 308° West 372 428 16,400 -1,024 Descending FlightAware ADS-B
Sun 12:01:56 PM 39.6220 -104.3140 307° West 375 432 15,900 -341 Descending FlightAware ADS-B
Sun 12:02:40 PM 39.6670 -104.3890 308° West 337 388 15,900 -70 Level FlightAware ADS-B
Sun 12:03:22 PM 39.7060 -104.4530 308° West 313 360 15,800 -825 Descending FlightAware ADS-B
Sun 12:04:00 PM 39.7410 -104.5070 310° West 311 358 14,800 -1,731 Descending FlightAware ADS-B
Sun 12:04:14 PM 39.7580 -104.5190 332° Northwest 313 360 14,300 -2,483 Descending FlightAware ADS-B
Sun 12:04:29 PM 39.7800 -104.5230 352° North 319 367 13,600 -2,357 Descending FlightAware ADS-B
Sun 12:05:10 PM 39.8400 -104.5220 North 306 352 12,100 -1,624 Descending FlightAware ADS-B
Sun 12:05:54 PM 39.8970 -104.5220 360° North 278 320 11,300 -951 Descending FlightAware ADS-B
Sun 12:06:32 PM 39.9470 -104.5220 360° North 268 308 10,800 -1,091 Descending FlightAware ADS-B
Sun 12:07:22 PM 40.0080 -104.5200 North 266 306 9,700 -1,308 Descending FlightAware ADS-B
Sun 12:07:50 PM 40.0420 -104.5190 North 261 300 9,100 -1,200 Descending FlightAware ADS-B
Sun 12:08:02 PM 40.0570 -104.5230 348° North 255 293 8,900 -692 Descending FlightAware ADS-B
Sun 12:08:16 PM 40.0690 -104.5350 323° Northwest 246 283 8,800 -692 Descending FlightAware ADS-B
Sun 12:08:28 PM 40.0750 -104.5520 295° West 237 273 8,600 -692 Descending FlightAware ADS-B
Sun 12:08:42 PM 40.0760 -104.5720 274° West 230 265 8,500 -800 Descending FlightAware ADS-B
Sun 12:08:58 PM 40.0760 -104.5930 270° West 228 262 8,200 -1,200 Descending FlightAware ADS-B
Sun 12:09:12 PM 40.0740 -104.6120 262° West 226 260 7,900 -1,154 Descending FlightAware ADS-B
Sun 12:09:24 PM 40.0690 -104.6250 243° Southwest 221 254 7,700 -818 Descending FlightAware ADS-B
Sun 12:09:34 PM 40.0610 -104.6330 217° Southwest 215 247 7,600 -563 Descending FlightAware ADS-B
Sun 12:09:56 PM 40.0430 -104.6480 213° Southwest 199 229 7,400 -600 Descending FlightAware ADS-B
Sun 12:10:24 PM 40.0220 -104.6650 212° Southwest 182 209 7,100 -536 Descending FlightAware ADS-B
Sun 12:10:52 PM 40.0010 -104.6790 207° Southwest 164 189 6,900 -511 Descending FlightAware ADS-B
Sun 12:11:58 PM 39.9550 -104.6860 187° South 154 177 6,300 -612 Descending FlightAware ADS-B
Sun 12:12:30 PM 39.9320 -104.6860 180° South 142 163 5,900 -724 Descending FlightAware ADS-B
Sun 12:12:56 PM 39.9150 -104.6870 183° South 144 166 5,600 -667 Descending FlightAware ADS-B
Sun 12:13:24 PM 39.8970 -104.6870 180° South 144 166 5,300 -643 Descending FlightAware ADS-B
Sun 12:13:52 PM 39.8810 -104.6870 180° South 72 83 -11,357 Descending FlightAware ADS-B
Sun 12:14:21 PM 39.8760 -104.6850 163° South 36 41  Level FlightAware ADS-B
Sun 12:14:29 PM 39.8740 -104.6850 180° South 35 40  Level FlightAware ADS-B
Sun 12:14:56 PM 39.8690 -104.6850 180° South 42 48  Level FlightAware ADS-B
Sun 12:15:23 PM 39.8640 -104.6850 180° South 40 46  Level FlightAware ADS-B
Sun 12:15:50 PM 39.8600 -104.6850 180° South 35 40  Level FlightAware ADS-B
Sun 12:16:08 PM 39.8570 -104.6850 180° South 30 35  Level FlightAware ADS-B
Sun 12:16:26 PM 39.8550 -104.6850 180° South 29 33  Level FlightAware ADS-B
Sun 12:17:06 PM 39.8530 -104.6820 131° Southeast 25 29  Level FlightAware ADS-B
Sun 12:17:22 PM 39.8530 -104.6800 90° East 29 33  Level FlightAware ADS-B
Sun 12:17:52 PM 39.8530 -104.6750 90° East 30 35  Level FlightAware ADS-B
Sun 12:21:00 PM 39.8500 -104.6667 199° South  Level FlightAware Approximate
Sun 12:22:00 PM 39.8617 -104.6732 199° South  Level Estimated
Sun 12:23:00 PM 39.8617 -104.6732 199° South  Level Estimated

Login

Don't have an account? Register now (free) for customized features, flight alerts, and more!